West Fenwick, Delaware
Current Conditions -  °F | °C
As of 3:53 PM on Tuesday 21 Oct 2014 (Local Time) from KOXB Reporting Station
Few Clouds Few Clouds  
Wind Chill: 68°   Ceiling: Unl
Heat Index: 68°   Visibility: 10mi
Dew Point: 56°   Wind: 5mph
Humidity: 65%   Direction: 190°S
Pressure: 29.79"   Gusts: NA
Location:  38.4673°N, 75.1926°W
Report Text: KOXB 211953Z AUTO 19004KT 10SM FEW048 20/13 A2979 RMK AO2 SLP087 T02000133 TSNO
Loading
Personal Weather Stations






























Interactive Weather Map
Tropical Storm Tracking
New forecast layout! Learn more

10-Day Weather Forecast

Advertisements
Track Severe Weather on mobile